Time;durP1;ratioP1;P1;durP2;ratioP2;P2;SDS_P1;SDS_P2;PMS_P1;PMS_P2;Temp;Humidity;BMP_temperature;BMP_pressure;BME280_temperature;BME280_humidity;BME280_pressure;Samples;Min_cycle;Max_cycle;Signal;HPM_P1;HPM_P2
2023/05/20 00:01:15;;;;;;;10.50;4.00;;;;;;;15.50;81.33;98554.13;5090306;28;20035;-48
2023/05/20 00:03:45;;;;;;;9.32;3.70;;;;;;;15.61;81.24;98549.84;5090186;28;20032;-48
2023/05/20 00:06:10;;;;;;;11.25;4.10;;;;;;;15.77;81.28;98551.78;5090464;28;20032;-48
2023/05/20 00:08:36;;;;;;;7.70;3.30;;;;;;;15.93;81.06;98544.88;5090068;28;20043;-48
2023/05/20 00:11:02;;;;;;;15.32;3.53;;;;;;;16.13;80.00;98552.38;5091732;28;20461;-49
2023/05/20 00:13:27;;;;;;;18.63;3.80;;;;;;;16.26;79.46;98545.16;5090168;28;20055;-48
2023/05/20 00:15:53;;;;;;;20.88;4.55;;;;;;;16.38;78.68;98548.53;5091389;28;20052;-48
2023/05/20 00:18:19;;;;;;;12.02;5.93;;;;;;;16.56;77.87;98548.28;5090048;28;20414;-48
2023/05/20 00:20:44;;;;;;;12.88;4.07;;;;;;;16.68;77.56;98540.25;5073259;28;20032;-48
2023/05/20 00:23:10;;;;;;;9.73;3.70;;;;;;;16.67;77.17;98541.28;5091721;28;20104;-48
2023/05/20 00:25:36;;;;;;;10.75;3.67;;;;;;;16.60;76.80;98534.53;5095119;28;20059;-48
2023/05/20 00:28:01;;;;;;;17.45;4.28;;;;;;;16.47;75.97;98530.41;5093666;28;20020;-48
2023/05/20 00:30:27;;;;;;;9.77;3.90;;;;;;;16.39;76.81;98539.53;5093705;28;20028;-48
2023/05/20 00:32:56;;;;;;;11.25;4.25;;;;;;;16.42;76.30;98533.78;5093645;28;20527;-48
2023/05/20 00:35:24;;;;;;;14.07;8.82;;;;;;;16.40;75.60;98532.38;5094857;28;20020;-48
2023/05/20 00:37:50;;;;;;;11.25;6.70;;;;;;;16.28;75.51;98535.94;5093503;28;20039;-48
2023/05/20 00:40:16;;;;;;;12.68;7.40;;;;;;;16.10;75.37;98530.88;5093449;28;20024;-48
2023/05/20 00:42:42;;;;;;;13.00;6.03;;;;;;;15.90;74.49;98534.00;5093293;28;20436;-48
2023/05/20 00:45:08;;;;;;;7.05;4.20;;;;;;;15.78;74.98;98529.56;5094692;28;20027;-48
2023/05/20 00:47:37;;;;;;;9.23;4.00;;;;;;;15.76;75.29;98522.91;5093227;28;20032;-48
2023/05/20 00:50:04;;;;;;;13.27;8.70;;;;;;;15.64;74.69;98522.91;5094557;28;20035;-48
2023/05/20 00:52:31;;;;;;;14.15;6.75;;;;;;;15.46;75.15;98518.63;5094624;28;20050;-48
2023/05/20 00:54:58;;;;;;;8.75;3.63;;;;;;;15.40;75.97;98527.50;5094496;28;20512;-48
2023/05/20 00:57:25;;;;;;;11.05;4.88;;;;;;;15.41;75.74;98517.72;5076487;28;20370;-48
2023/05/20 00:59:51;;;;;;;6.85;4.15;;;;;;;15.36;75.00;98515.78;5094378;28;20035;-48
2023/05/20 01:02:16;;;;;;;15.30;5.25;;;;;;;15.23;75.85;98514.22;5093025;28;20036;-48
2023/05/20 01:04:45;;;;;;;9.93;5.82;;;;;;;15.25;76.25;98521.91;5094396;28;20039;-48
2023/05/20 01:07:14;;;;;;;10.27;5.20;;;;;;;15.27;75.75;98518.00;5092874;28;20039;-48
2023/05/20 01:09:40;;;;;;;5.93;4.20;;;;;;;15.22;75.41;98520.53;5094493;28;20396;-48
2023/05/20 01:12:38;;;;;;;8.85;5.22;;;;;;;15.06;75.50;98518.63;5094164;28;20046;-48
2023/05/20 01:15:09;;;;;;;9.65;4.90;;;;;;;14.96;75.98;98517.38;5072853;28;20109;-48
2023/05/20 01:17:38;;;;;;;7.53;4.85;;;;;;;14.94;75.97;98519.44;5094086;28;20559;-48
2023/05/20 01:20:11;;;;;;;17.65;12.32;;;;;;;14.84;76.77;98519.25;5092835;28;20456;-48
2023/05/20 01:22:53;;;;;;;29.05;25.73;;;;;;;14.82;77.84;98521.31;5094398;28;20031;-48
2023/05/20 01:25:18;;;;;;;9.30;5.20;;;;;;;14.82;77.81;98523.94;5094032;28;20485;-48
2023/05/20 01:27:45;;;;;;;15.32;9.50;;;;;;;14.77;77.37;98516.72;5092515;28;20039;-48
2023/05/20 01:30:12;;;;;;;8.27;5.28;;;;;;;14.69;77.76;98524.19;5093747;28;20119;-48
2023/05/20 01:32:42;;;;;;;13.90;5.13;;;;;;;14.64;77.74;98519.59;5092456;28;20035;-48
2023/05/20 01:35:09;;;;;;;13.02;5.22;;;;;;;14.71;77.89;98516.84;5092447;28;20058;-48
2023/05/20 01:37:40;;;;;;;10.50;5.57;;;;;;;14.67;77.24;98520.97;5093729;28;20424;-48
2023/05/20 01:40:11;;;;;;;5.55;4.28;;;;;;;14.68;76.91;98523.38;5093554;28;20032;-48
2023/05/20 01:42:38;;;;;;;7.75;4.72;;;;;;;14.67;76.69;98516.50;5093325;28;20131;-48
2023/05/20 01:45:04;;;;;;;12.32;5.60;;;;;;;14.65;76.88;98520.41;5093694;28;20024;-48
2023/05/20 01:47:33;;;;;;;8.07;4.95;;;;;;;14.48;76.86;98518.41;5093432;28;20436;-48
2023/05/20 01:49:59;;;;;;;6.15;5.13;;;;;;;14.38;77.13;98507.63;5092410;28;20028;-48
2023/05/20 01:52:24;;;;;;;9.30;5.03;;;;;;;14.31;77.57;98502.47;5092056;28;20024;-48
2023/05/20 01:54:50;;;;;;;10.20;5.03;;;;;;;14.44;77.91;98498.00;5091941;28;20055;-48
2023/05/20 01:57:20;;;;;;;12.60;5.63;;;;;;;14.49;77.16;98493.63;5092033;28;20039;-48
2023/05/20 01:59:46;;;;;;;12.38;5.40;;;;;;;14.57;76.88;98498.59;5093218;28;20489;-48
2023/05/20 02:02:12;;;;;;;6.13;4.57;;;;;;;14.68;76.56;98490.91;5093196;28;20024;-48
2023/05/20 02:04:38;;;;;;;11.55;4.45;;;;;;;14.62;75.61;98489.97;5093125;28;20119;-48
2023/05/20 02:07:04;;;;;;;8.23;5.25;;;;;;;14.55;75.88;98500.63;5091675;28;20210;-48
2023/05/20 02:09:29;;;;;;;12.13;5.28;;;;;;;14.49;75.28;98490.19;5093089;28;20031;-48
2023/05/20 02:11:55;;;;;;;7.72;5.28;;;;;;;14.36;75.83;98496.50;5091652;28;20398;-49
2023/05/20 02:14:21;;;;;;;10.10;5.20;;;;;;;14.28;75.95;98491.56;5093027;28;20026;-48
2023/05/20 02:16:46;;;;;;;12.90;4.90;;;;;;;14.19;75.97;98491.91;5092861;28;20063;-48
2023/05/20 02:19:12;;;;;;;9.73;5.40;;;;;;;14.16;76.39;98494.97;5091607;28;20043;-48
2023/05/20 02:21:42;;;;;;;10.98;4.97;;;;;;;14.18;76.93;98490.31;5093103;28;20053;-48
2023/05/20 02:24:08;;;;;;;9.77;4.68;;;;;;;14.26;76.97;98496.25;5091559;28;20015;-48
2023/05/20 02:26:34;;;;;;;10.10;5.40;;;;;;;14.35;76.66;98487.78;5092696;28;20028;-48
2023/05/20 02:28:59;;;;;;;8.55;4.95;;;;;;;14.43;76.72;98485.81;5092775;28;20028;-48
2023/05/20 02:31:26;;;;;;;8.60;4.85;;;;;;;14.55;76.46;98478.72;5092637;28;20028;-48
2023/05/20 02:33:51;;;;;;;12.27;7.65;;;;;;;14.64;76.16;98482.63;5092499;28;20028;-48
2023/05/20 02:36:17;;;;;;;10.35;5.30;;;;;;;14.80;75.88;98475.03;5091262;28;20031;-48
2023/05/20 02:38:43;;;;;;;8.02;4.40;;;;;;;14.94;75.10;98474.53;5091202;28;20031;-48
2023/05/20 02:41:09;;;;;;;13.23;5.25;;;;;;;15.07;74.21;98478.75;5090928;28;20089;-49
2023/05/20 02:43:35;;;;;;;10.77;4.55;;;;;;;15.10;73.67;98477.47;5091530;28;20125;-48
2023/05/20 02:46:02;;;;;;;5.75;4.05;;;;;;;15.10;73.22;98478.28;5091990;28;20485;-48
2023/05/20 02:48:27;;;;;;;11.43;5.43;;;;;;;14.90;73.19;98480.53;5092278;28;20494;-48
2023/05/20 02:50:53;;;;;;;9.38;5.13;;;;;;;14.81;73.70;98474.81;5092331;28;20034;-48
2023/05/20 02:53:19;;;;;;;10.63;5.00;;;;;;;14.75;74.30;98478.38;5091015;28;20024;-48
2023/05/20 02:55:48;;;;;;;11.73;4.93;;;;;;;14.76;74.24;98483.41;5092129;28;20031;-48
2023/05/20 02:58:14;;;;;;;10.93;4.45;;;;;;;14.78;74.47;98469.97;5091003;28;20039;-48
2023/05/20 03:00:40;;;;;;;8.70;4.47;;;;;;;14.82;74.37;98459.75;5092226;28;20520;-48
2023/05/20 03:03:06;;;;;;;8.00;4.00;;;;;;;14.86;74.01;98472.25;5092193;28;20032;-48
2023/05/20 03:05:36;;;;;;;9.00;4.10;;;;;;;14.95;73.89;98477.97;5090723;28;20036;-49
2023/05/20 03:08:09;;;;;;;9.32;4.30;;;;;;;14.97;73.56;98463.50;5091895;28;20032;-49
2023/05/20 03:10:40;;;;;;;5.70;4.60;;;;;;;14.83;73.19;98464.81;5090761;28;20020;-49
2023/05/20 03:13:08;;;;;;;15.23;5.03;;;;;;;14.66;73.36;98459.41;5090771;28;20032;-48
2023/05/20 03:15:34;;;;;;;12.10;4.93;;;;;;;14.46;73.99;98470.31;5091922;28;20027;-48
2023/05/20 03:18:00;;;;;;;12.57;5.28;;;;;;;14.37;74.52;98463.81;5090655;28;20469;-48
2023/05/20 03:20:27;;;;;;;15.05;5.18;;;;;;;14.18;74.69;98471.84;5092008;28;20081;-48
2023/05/20 03:22:56;;;;;;;10.30;4.80;;;;;;;14.18;75.43;98473.66;5091912;28;20031;-48
2023/05/20 03:25:23;;;;;;;6.85;4.70;;;;;;;14.06;75.73;98472.84;5090522;28;20036;-49
2023/05/20 03:27:49;;;;;;;13.73;5.90;;;;;;;14.00;76.01;98471.91;5091821;28;20029;-48
2023/05/20 03:30:15;;;;;;;17.38;4.70;;;;;;;14.08;76.62;98468.94;5091813;28;20108;-48
2023/05/20 03:32:41;;;;;;;10.88;4.60;;;;;;;14.29;76.34;98464.16;5091886;28;20028;-48
2023/05/20 03:35:08;;;;;;;13.60;4.53;;;;;;;14.42;75.37;98463.88;5091861;28;20028;-49
2023/05/20 03:37:34;;;;;;;10.43;4.50;;;;;;;14.45;75.03;98466.09;5091803;28;20077;-48
2023/05/20 03:39:59;;;;;;;8.23;3.90;;;;;;;14.55;74.54;98468.94;5090423;28;20032;-48
2023/05/20 03:42:25;;;;;;;10.68;4.95;;;;;;;14.68;73.85;98467.91;5091529;28;20051;-48
2023/05/20 03:44:51;;;;;;;9.63;5.30;;;;;;;14.73;73.29;98459.31;5090352;28;20417;-48
2023/05/20 03:47:17;;;;;;;11.10;4.53;;;;;;;14.87;73.46;98452.72;5091636;28;20272;-49
2023/05/20 03:49:42;;;;;;;12.35;4.00;;;;;;;15.13;72.86;98456.69;5090395;28;20035;-49
2023/05/20 03:52:08;;;;;;;11.13;3.78;;;;;;;15.42;71.92;98446.09;5090284;28;20031;-49
2023/05/20 03:54:35;;;;;;;14.80;4.72;;;;;;;15.60;70.90;98453.00;5090306;28;20065;-48
2023/05/20 03:57:02;;;;;;;9.88;4.28;;;;;;;15.69;70.07;98451.56;5090229;28;20035;-48
2023/05/20 03:59:28;;;;;;;16.10;4.45;;;;;;;15.77;69.39;98447.75;5095101;28;20024;-49
2023/05/20 04:01:55;;;;;;;13.10;4.70;;;;;;;15.85;68.96;98430.69;5095464;28;20035;-48
2023/05/20 04:04:21;;;;;;;13.38;4.53;;;;;;;16.00;68.06;98433.59;5096011;28;20046;-48
2023/05/20 04:06:47;;;;;;;18.45;4.60;;;;;;;16.12;67.67;98429.00;5094082;28;20432;-48
2023/05/20 04:09:13;;;;;;;24.15;5.13;;;;;;;16.22;67.14;98436.28;5095369;28;20501;-49
2023/05/20 04:11:38;;;;;;;13.10;3.72;;;;;;;16.21;66.55;98439.16;5093990;28;20465;-48
2023/05/20 04:14:04;;;;;;;4.88;3.70;;;;;;;15.98;66.22;98448.91;5094012;28;20028;-48
2023/05/20 04:16:29;;;;;;;9.43;3.97;;;;;;;15.59;66.94;98446.09;5093896;28;20067;-49
2023/05/20 04:18:57;;;;;;;9.30;4.82;;;;;;;15.22;67.61;98451.81;5093907;28;20478;-48
2023/05/20 04:21:23;;;;;;;11.27;4.90;;;;;;;14.90;68.20;98444.31;5077259;28;20035;-48
2023/05/20 04:23:49;;;;;;;15.85;4.47;;;;;;;14.72;69.04;98460.34;5060274;28;20031;-48
2023/05/20 04:26:15;;;;;;;6.40;4.32;;;;;;;14.68;69.44;98459.19;5093757;28;20055;-48
2023/05/20 04:28:40;;;;;;;15.43;5.03;;;;;;;14.65;69.36;98457.00;5095262;28;20028;-48
2023/05/20 04:31:06;;;;;;;13.40;4.93;;;;;;;14.58;69.49;98454.50;5093731;28;20031;-48
2023/05/20 04:33:36;;;;;;;12.40;7.32;;;;;;;14.41;70.00;98457.03;5095290;28;20028;-48
2023/05/20 04:36:04;;;;;;;11.45;5.25;;;;;;;14.34;70.69;98456.31;5093851;28;20032;-48
2023/05/20 04:38:31;;;;;;;11.63;4.93;;;;;;;14.22;70.93;98458.97;5094813;28;20527;-48
2023/05/20 04:41:00;;;;;;;12.15;6.05;;;;;;;14.04;71.18;98466.97;5093291;28;20147;-48
2023/05/20 04:43:28;;;;;;;20.88;6.22;;;;;;;13.97;72.13;98461.81;5093926;28;20036;-48
2023/05/20 04:45:58;;;;;;;9.32;5.10;;;;;;;14.09;72.28;98460.00;5094597;28;20123;-48
2023/05/20 04:48:24;;;;;;;7.85;5.30;;;;;;;14.24;71.92;98456.91;5093252;28;20032;-48
2023/05/20 04:50:53;;;;;;;7.80;4.72;;;;;;;14.35;71.84;98447.38;5093285;28;20251;-48
2023/05/20 04:53:20;;;;;;;12.27;5.88;;;;;;;14.52;71.40;98453.56;5094552;28;20496;-48
2023/05/20 04:55:53;;;;;;;15.35;5.57;;;;;;;14.80;71.03;98451.25;5094507;28;20035;-48
2023/05/20 04:58:23;;;;;;;11.93;5.57;;;;;;;15.12;69.94;98462.19;5094582;28;20024;-49
2023/05/20 05:00:50;;;;;;;9.30;4.45;;;;;;;15.27;69.05;98456.38;5094311;28;20024;-48
2023/05/20 05:03:16;;;;;;;8.02;5.07;;;;;;;15.50;68.19;98452.84;5094439;28;20035;-49
2023/05/20 05:05:42;;;;;;;8.95;4.57;;;;;;;15.75;67.50;98441.91;5094323;28;20032;-48
2023/05/20 05:08:10;;;;;;;19.70;9.13;;;;;;;16.13;66.64;98443.81;5092803;28;20036;-48
2023/05/20 05:10:36;;;;;;;7.00;4.80;;;;;;;16.46;65.50;98438.72;5094057;28;20028;-49
2023/05/20 05:13:02;;;;;;;11.02;4.43;;;;;;;16.63;64.75;98438.69;5092874;28;20030;-49
2023/05/20 05:15:28;;;;;;;17.52;5.82;;;;;;;16.78;63.92;98438.84;5094167;28;20107;-48
2023/05/20 05:17:54;;;;;;;9.68;4.40;;;;;;;16.94;62.68;98434.56;5094103;28;20031;-48
2023/05/20 05:20:20;;;;;;;10.45;4.20;;;;;;;17.07;62.55;98436.06;5094050;28;20087;-48
2023/05/20 05:22:46;;;;;;;12.15;4.13;;;;;;;17.14;61.94;98440.13;5094051;28;20497;-47
2023/05/20 05:25:12;;;;;;;11.95;5.65;;;;;;;17.15;61.54;98446.22;5092702;28;20054;-48
2023/05/20 05:27:38;;;;;;;21.75;10.93;;;;;;;17.09;61.31;98439.25;5093753;28;20035;-48
2023/05/20 05:30:05;;;;;;;15.55;10.32;;;;;;;17.05;60.95;98446.09;5092550;28;20024;-48
2023/05/20 05:32:31;;;;;;;14.07;8.07;;;;;;;17.02;61.15;98443.94;5092471;28;20490;-48
2023/05/20 05:34:57;;;;;;;20.13;10.23;;;;;;;16.96;60.70;98440.44;5093669;28;20085;-48
2023/05/20 05:37:23;;;;;;;29.75;12.23;;;;;;;16.91;60.93;98445.69;5093712;28;20024;-48
2023/05/20 05:39:48;;;;;;;16.95;6.90;;;;;;;17.04;60.95;98436.53;5093615;28;20028;-48
2023/05/20 05:42:14;;;;;;;19.88;6.95;;;;;;;17.20;60.72;98438.31;5092096;28;20048;-48
2023/05/20 05:44:40;;;;;;;17.65;4.93;;;;;;;17.45;60.04;98434.31;5093545;28;20035;-48
2023/05/20 05:47:05;;;;;;;18.98;4.20;;;;;;;17.70;59.16;98431.06;5093408;28;20082;-48
2023/05/20 05:49:32;;;;;;;17.27;5.03;;;;;;;17.84;58.60;98426.97;5092138;28;20119;-48
2023/05/20 05:51:57;;;;;;;10.70;4.57;;;;;;;17.97;58.06;98433.72;5092357;28;20478;-48
2023/05/20 05:54:23;;;;;;;10.55;4.97;;;;;;;18.06;57.69;98432.19;5093390;28;20039;-48
2023/05/20 05:56:53;;;;;;;7.93;4.85;;;;;;;18.11;57.58;98432.22;5093238;28;20099;-48
2023/05/20 05:59:19;;;;;;;16.23;4.55;;;;;;;18.21;57.08;98433.34;5091978;28;20035;-48
2023/05/20 06:01:44;;;;;;;13.68;7.75;;;;;;;18.36;56.98;98425.47;5091901;28;20028;-48
2023/05/20 06:04:10;;;;;;;19.65;4.80;;;;;;;18.56;56.30;98420.25;5093202;28;20402;-48
2023/05/20 06:06:36;;;;;;;15.50;4.72;;;;;;;18.74;55.35;98413.69;5093118;28;20035;-48
2023/05/20 06:09:02;;;;;;;16.40;4.30;;;;;;;18.97;54.58;98416.97;5093020;28;20028;-48
2023/05/20 06:11:28;;;;;;;12.15;4.75;;;;;;;19.28;53.92;98417.06;5093027;28;20038;-48
2023/05/20 06:13:54;;;;;;;10.85;4.97;;;;;;;19.54;52.86;98413.34;5091982;28;20024;-48
2023/05/20 06:16:19;;;;;;;11.45;4.30;;;;;;;19.79;51.92;98411.78;5092899;28;20032;-48
2023/05/20 06:18:45;;;;;;;12.60;3.30;;;;;;;20.10;50.81;98404.56;5092852;28;20390;-48
2023/05/20 06:21:11;;;;;;;9.85;3.75;;;;;;;20.43;49.90;98396.22;5092224;28;20024;-48
2023/05/20 06:23:37;;;;;;;13.13;3.78;;;;;;;20.74;49.34;98402.25;5093096;28;20039;-48
2023/05/20 06:26:03;;;;;;;9.32;3.42;;;;;;;20.93;48.53;98400.56;5091452;28;20382;-48
2023/05/20 06:28:29;;;;;;;7.72;3.90;;;;;;;20.34;48.91;98390.63;5092648;28;20072;-46
2023/05/20 06:30:56;;;;;;;9.75;3.70;;;;;;;19.87;49.16;98400.59;5092556;28;20084;-46
2023/05/20 06:33:26;;;;;;;11.38;3.88;;;;;;;19.37;50.75;98410.13;5092628;28;20489;-46
2023/05/20 06:35:52;;;;;;;11.70;3.90;;;;;;;19.63;50.63;98404.84;5091193;28;20039;-46
2023/05/20 06:38:19;;;;;;;13.38;3.92;;;;;;;19.73;50.03;98408.31;5091240;28;20070;-45
2023/05/20 06:40:44;;;;;;;8.63;4.00;;;;;;;19.75;49.76;98406.19;5090955;28;20031;-47
2023/05/20 06:43:10;;;;;;;7.43;3.60;;;;;;;19.84;49.67;98406.47;5092489;28;20035;-46
2023/05/20 06:45:35;;;;;;;13.23;3.95;;;;;;;19.83;50.09;98409.41;5091115;28;20035;-46
2023/05/20 06:48:01;;;;;;;10.38;4.03;;;;;;;20.00;49.42;98401.94;5092334;28;20397;-46
2023/05/20 06:50:27;;;;;;;5.75;3.33;;;;;;;20.47;48.40;98399.94;5091032;28;20114;-46
2023/05/20 06:52:53;;;;;;;6.90;3.25;;;;;;;21.24;46.52;98407.59;5091254;28;20397;-46
2023/05/20 06:55:19;;;;;;;4.40;3.35;;;;;;;22.20;44.11;98407.09;5091002;28;20039;-46
2023/05/20 06:57:45;;;;;;;14.32;4.32;;;;;;;22.74;43.25;98411.34;5090859;28;20489;-46
2023/05/20 07:00:12;;;;;;;7.82;3.20;;;;;;;23.56;41.41;98404.81;5091131;28;20123;-46
2023/05/20 07:02:38;;;;;;;11.40;4.13;;;;;;;24.07;39.99;98403.22;5092126;28;20031;-46
2023/05/20 07:05:05;;;;;;;8.70;3.55;;;;;;;24.77;38.74;98407.50;5091066;28;20039;-46
2023/05/20 07:07:31;;;;;;;13.50;4.00;;;;;;;25.45;36.51;98394.19;5090911;28;20040;-47
2023/05/20 07:09:57;;;;;;;12.38;3.50;;;;;;;25.67;36.20;98396.88;5073940;28;20092;-46
2023/05/20 07:12:23;;;;;;;6.30;3.80;;;;;;;26.34;35.77;98392.50;5091016;28;20504;-46
2023/05/20 07:14:49;;;;;;;6.72;3.45;;;;;;;27.02;33.92;98392.19;5090768;28;20504;-46
2023/05/20 07:17:15;;;;;;;7.47;3.10;;;;;;;27.28;33.06;98390.31;5074058;28;20034;-46
2023/05/20 07:19:41;;;;;;;7.18;3.42;;;;;;;27.64;33.08;98397.25;5091880;28;20032;-47
2023/05/20 07:22:07;;;;;;;8.43;3.35;;;;;;;28.48;32.13;98389.50;5091877;28;20512;-46
2023/05/20 07:24:33;;;;;;;6.28;3.47;;;;;;;29.52;30.78;98386.41;5091927;28;20024;-46
2023/05/20 07:26:58;;;;;;;5.45;2.88;;;;;;;29.83;29.71;98384.03;5090450;28;20409;-47
2023/05/20 07:29:24;;;;;;;13.57;4.13;;;;;;;30.51;28.80;98380.03;5090461;28;20405;-47
2023/05/20 07:31:50;;;;;;;10.25;3.45;;;;;;;30.75;28.42;98379.22;5092813;28;20225;-47
2023/05/20 07:34:15;;;;;;;7.28;3.75;;;;;;;30.80;28.43;98381.69;5095074;28;20028;-47
2023/05/20 07:36:42;;;;;;;10.30;3.67;;;;;;;30.67;28.34;98375.50;5095953;28;20141;-47
2023/05/20 07:39:09;;;;;;;11.55;3.75;;;;;;;30.46;28.61;98374.84;5096167;28;20047;-47
2023/05/20 07:41:36;;;;;;;6.38;3.10;;;;;;;30.11;28.40;98369.09;5095660;28;20126;-47
2023/05/20 07:44:04;;;;;;;6.22;3.55;;;;;;;30.05;28.24;98366.59;5095841;28;20035;-47
2023/05/20 07:46:30;;;;;;;7.65;3.70;;;;;;;30.44;28.08;98363.56;5094420;28;20039;-47
2023/05/20 07:48:56;;;;;;;13.07;4.25;;;;;;;30.30;28.12;98371.22;5094386;28;20028;-46
2023/05/20 07:51:22;;;;;;;14.23;3.75;;;;;;;29.26;29.05;98363.91;5095708;28;20074;-47
2023/05/20 07:53:48;;;;;;;12.13;4.10;;;;;;;28.77;29.85;98360.91;5094302;28;20490;-46
2023/05/20 07:56:15;;;;;;;8.25;3.63;;;;;;;28.34;30.36;98351.16;5095609;28;20462;-47
2023/05/20 07:58:41;;;;;;;10.43;3.80;;;;;;;28.37;30.35;98349.72;5095511;28;20028;-47
2023/05/20 08:01:08;;;;;;;9.43;3.65;;;;;;;28.85;29.87;98349.25;5094218;28;20129;-47
2023/05/20 08:03:35;;;;;;;8.65;3.40;;;;;;;29.33;29.44;98354.47;5095678;28;20107;-46
2023/05/20 08:06:01;;;;;;;11.27;3.88;;;;;;;30.34;28.11;98345.84;5094073;28;20024;-47
2023/05/20 08:08:29;;;;;;;7.03;3.70;;;;;;;31.44;27.08;98338.56;5094021;28;20078;-47
2023/05/20 08:10:55;;;;;;;10.32;4.15;;;;;;;31.18;26.75;98342.53;5095565;28;20032;-47
2023/05/20 08:13:20;;;;;;;11.05;3.85;;;;;;;29.99;27.54;98359.03;5094315;28;20085;-46
2023/05/20 08:15:47;;;;;;;7.38;3.92;;;;;;;28.64;29.76;98364.69;5095537;28;20024;-47
2023/05/20 08:18:14;;;;;;;13.60;4.50;;;;;;;28.65;30.31;98353.56;5095194;28;20073;-47
2023/05/20 08:20:43;;;;;;;6.50;3.45;;;;;;;28.99;29.62;98349.00;5095115;28;20031;-47
2023/05/20 08:23:09;;;;;;;9.60;4.00;;;;;;;28.63;29.78;98354.97;5095108;28;20027;-46
2023/05/20 08:25:36;;;;;;;9.02;3.42;;;;;;;28.86;29.47;98347.38;5095017;28;20142;-46
2023/05/20 08:28:04;;;;;;;8.73;3.85;;;;;;;30.03;28.45;98341.78;5093885;28;20449;-47
2023/05/20 08:30:30;;;;;;;6.50;3.90;;;;;;;31.40;26.65;98338.47;5094950;28;20028;-46
2023/05/20 08:32:56;;;;;;;11.68;3.85;;;;;;;32.32;25.54;98346.59;5094946;28;20031;-47
2023/05/20 08:35:22;;;;;;;7.93;3.58;;;;;;;33.32;24.81;98338.97;5093680;28;20020;-47
2023/05/20 08:37:48;;;;;;;6.40;3.30;;;;;;;33.97;23.72;98336.22;5094917;28;20020;-47
2023/05/20 08:40:14;;;;;;;9.43;4.50;;;;;;;32.49;25.10;98333.75;5094740;28;20032;-48
2023/05/20 08:42:44;;;;;;;8.95;3.92;;;;;;;30.83;26.82;98348.50;5094597;28;20464;-47
2023/05/20 08:45:11;;;;;;;9.95;4.35;;;;;;;29.67;28.31;98343.28;5093953;28;20386;-47
2023/05/20 08:47:41;;;;;;;9.50;3.70;;;;;;;28.84;29.40;98342.28;5093490;28;20036;-47
2023/05/20 08:50:12;;;;;;;13.48;4.20;;;;;;;27.91;30.81;98352.16;5094860;28;20055;-47
2023/05/20 08:52:44;;;;;;;14.73;4.32;;;;;;;27.24;31.76;98340.06;5094847;28;20031;-47
2023/05/20 08:55:15;;;;;;;17.90;4.90;;;;;;;26.94;32.85;98347.97;5094786;28;20454;-47
2023/05/20 08:57:44;;;;;;;10.45;4.45;;;;;;;26.69;32.87;98347.63;5094465;28;20032;-47
2023/05/20 09:00:15;;;;;;;11.85;4.78;;;;;;;26.77;33.05;98345.28;5094649;28;20436;-47
2023/05/20 09:02:44;;;;;;;8.93;4.03;;;;;;;26.73;33.16;98342.41;5094413;28;20028;-46
2023/05/20 09:05:11;;;;;;;12.35;4.50;;;;;;;26.59;32.95;98347.94;5094275;28;20123;-46
2023/05/20 09:07:36;;;;;;;7.68;3.30;;;;;;;26.53;32.98;98353.75;5093119;28;20024;-47
2023/05/20 09:10:03;;;;;;;17.05;4.32;;;;;;;27.02;32.37;98347.16;5094204;28;20070;-46
2023/05/20 09:12:29;;;;;;;6.15;4.05;;;;;;;27.97;31.95;98345.47;5093125;28;20035;-46
2023/05/20 09:14:54;;;;;;;9.70;4.65;;;;;;;28.75;30.20;98330.75;5094094;28;20028;-47
2023/05/20 09:17:23;;;;;;;9.10;4.20;;;;;;;29.94;28.93;98329.47;5094107;28;20401;-46
2023/05/20 09:19:50;;;;;;;7.53;4.25;;;;;;;30.84;27.61;98328.38;5092872;28;20024;-46
2023/05/20 09:22:23;;;;;;;6.05;3.50;;;;;;;31.06;27.34;98329.81;5092985;28;20048;-47
2023/05/20 09:24:50;;;;;;;6.38;3.70;;;;;;;30.66;27.41;98332.50;5094202;28;20042;-47
2023/05/20 09:27:15;;;;;;;9.50;4.07;;;;;;;30.48;27.37;98336.59;5093807;28;20048;-46
2023/05/20 09:29:42;;;;;;;7.22;4.22;;;;;;;29.37;28.41;98331.84;5093866;28;20058;-47
2023/05/20 09:32:10;;;;;;;10.60;5.32;;;;;;;27.95;30.68;98334.22;5093695;28;20024;-46
2023/05/20 09:34:37;;;;;;;8.05;4.72;;;;;;;27.15;32.45;98334.66;5092427;28;20489;-47
2023/05/20 09:37:06;;;;;;;13.27;5.78;;;;;;;26.41;32.98;98341.69;5092386;28;20051;-47
2023/05/20 09:39:35;;;;;;;11.73;4.70;;;;;;;25.93;33.96;98341.69;5093658;28;20019;-47
2023/05/20 09:42:09;;;;;;;19.77;5.38;;;;;;;25.38;34.96;98332.06;5093394;28;20059;-46
2023/05/20 09:44:37;;;;;;;13.23;5.22;;;;;;;24.85;35.67;98336.19;5092355;28;20044;-46
2023/05/20 09:47:06;;;;;;;11.88;4.38;;;;;;;24.56;36.33;98339.25;5093458;28;20024;-46
2023/05/20 09:49:35;;;;;;;13.32;5.50;;;;;;;24.37;36.80;98336.66;5093671;28;20390;-46
2023/05/20 09:52:03;;;;;;;10.82;4.22;;;;;;;24.12;37.10;98344.91;5092433;28;20024;-46
2023/05/20 09:54:29;;;;;;;13.68;5.03;;;;;;;24.03;37.76;98338.66;5093266;28;20059;-46
2023/05/20 09:56:58;;;;;;;13.02;5.15;;;;;;;24.23;37.49;98344.72;5092419;28;20099;-46
2023/05/20 09:59:26;;;;;;;18.13;5.22;;;;;;;24.34;37.44;98338.06;5092037;28;20028;-46
2023/05/20 10:01:52;;;;;;;8.00;5.10;;;;;;;24.14;37.80;98339.25;5093257;28;20462;-46
2023/05/20 10:04:20;;;;;;;8.73;4.93;;;;;;;24.08;37.82;98337.75;5093219;28;20103;-46
2023/05/20 10:07:29;;;;;;;13.32;5.03;;;;;;;24.10;37.58;98333.69;5093191;28;20051;-46
2023/05/20 10:10:16;;;;;;;7.72;4.78;;;;;;;23.97;37.93;98339.84;5072719;28;20114;-46
2023/05/20 10:12:53;;;;;;;8.10;4.75;;;;;;;23.83;38.14;98337.16;5092139;28;20089;-47
2023/05/20 10:15:41;;;;;;;7.65;4.85;;;;;;;23.83;38.35;98325.66;5093083;28;20097;-46
2023/05/20 10:18:29;;;;;;;7.25;4.80;;;;;;;24.08;38.42;98327.81;5091959;28;20016;-47
2023/05/20 10:20:55;;;;;;;7.95;4.53;;;;;;;24.64;37.52;98325.91;5092869;28;20107;-47
2023/05/20 10:23:29;;;;;;;7.97;5.03;;;;;;;25.08;36.95;98308.28;5093092;28;20175;-47
2023/05/20 10:25:57;;;;;;;13.30;5.00;;;;;;;25.60;36.35;98307.06;5091523;28;20057;-47
2023/05/20 10:28:36;;;;;;;12.32;4.95;;;;;;;25.45;36.12;98318.97;5092607;28;20285;-46
2023/05/20 10:31:13;;;;;;;12.77;4.63;;;;;;;25.50;35.74;98322.34;5092727;28;20503;-46
2023/05/20 10:33:43;;;;;;;10.88;4.80;;;;;;;25.84;35.84;98322.81;5091363;28;20035;-47
2023/05/20 10:36:10;;;;;;;7.82;4.82;;;;;;;26.94;34.16;98320.25;5091547;28;20121;-47
2023/05/20 10:38:35;;;;;;;11.60;5.15;;;;;;;27.78;32.77;98299.97;5091216;28;20020;-47
2023/05/20 10:41:10;;;;;;;10.75;4.75;;;;;;;28.70;31.45;98306.66;5092323;28;20051;-48
2023/05/20 10:43:36;;;;;;;11.88;4.65;;;;;;;29.00;30.82;98310.06;5091178;28;20032;-47
2023/05/20 10:46:01;;;;;;;8.07;4.70;;;;;;;28.61;31.18;98298.59;5092719;28;20055;-47
2023/05/20 10:48:30;;;;;;;9.02;4.50;;;;;;;28.26;31.04;98306.13;5092558;28;20512;-47
2023/05/20 10:51:03;;;;;;;10.40;4.45;;;;;;;27.88;31.28;98304.25;5091331;28;20101;-47
2023/05/20 10:53:37;;;;;;;11.43;4.60;;;;;;;27.70;31.88;98298.09;5092592;28;20027;-47
2023/05/20 10:56:03;;;;;;;7.03;4.43;;;;;;;27.54;32.30;98299.75;5092255;28;20020;-47
2023/05/20 10:58:37;;;;;;;12.90;4.30;;;;;;;27.53;32.16;98303.53;5091155;28;20262;-47
2023/05/20 11:01:03;;;;;;;10.15;4.38;;;;;;;27.53;32.11;98304.34;5092193;28;20032;-47
2023/05/20 11:03:29;;;;;;;10.80;4.50;;;;;;;27.61;32.27;98300.06;5090911;28;20024;-47
2023/05/20 11:05:55;;;;;;;11.13;4.93;;;;;;;27.66;31.91;98297.94;5092132;28;20393;-47
2023/05/20 11:08:21;;;;;;;12.90;4.57;;;;;;;27.57;32.15;98301.78;5091551;28;20020;-47
2023/05/20 11:10:47;;;;;;;13.18;5.38;;;;;;;27.25;32.71;98299.34;5090782;28;20028;-46
2023/05/20 11:13:14;;;;;;;10.98;5.18;;;;;;;26.84;33.22;98299.81;5091005;28;20440;-47
2023/05/20 11:15:40;;;;;;;13.35;5.15;;;;;;;26.26;33.87;98304.50;5090725;28;20114;-47
2023/05/20 11:18:06;;;;;;;10.38;5.78;;;;;;;25.93;34.65;98304.06;5090943;28;20077;-47
2023/05/20 11:20:34;;;;;;;7.40;4.57;;;;;;;25.48;35.54;98299.56;5090592;28;20024;-47
2023/05/20 11:23:01;;;;;;;8.43;4.47;;;;;;;24.99;36.36;98290.50;5090666;28;20024;-47
2023/05/20 11:25:27;;;;;;;10.68;4.13;;;;;;;25.19;36.57;98287.34;5092127;28;20039;-47
2023/05/20 11:27:53;;;;;;;9.85;5.20;;;;;;;25.51;35.79;98285.50;5092126;28;20028;-47
2023/05/20 11:30:19;;;;;;;14.02;5.40;;;;;;;25.66;35.53;98277.03;5091811;28;20035;-46